Aérodrome :
LOGIN :

S'inscrire | Disclaimer

   EN    FR    IT 

 










Légende :    VFR   VFR Marginal   IFR   IFR Intensif   IFR Très Intensif
Visi : 
Plafond : 
>= 8 km
>= 3000ft
5 à 8 km
1000 à 3000 ft
1500m à 5 km
500 à 1000 ft
800 à 1500m
200 à 500 ft
< 800m
< 200 ft
Symboles :   Orages  Brouillard  Fortes neiges  Fortes précipitations  Vent > 20 kt
SIGMETs :   Divers  Orages  Givrage  Turbulence  Onde Orograph.  Cendres Volcan.







- Altitude de l'aérodrome : 427 ft
- Code IATA : CIA


LIRA - Roma Ciampino

DERNIER METAR :
  • 212350Z 08008KT CAVOK 16/03 Q1013

METARs EXPIRÉS :
  • 212320Z 07005KT CAVOK 16/03 Q1014
  • 212250Z 08004KT 050V140 CAVOK 15/03 Q1014
  • 212220Z 09003KT CAVOK 16/03 Q1014
  • 212150Z 09010KT 060V120 CAVOK 17/02 Q1014
  • 212120Z 09005KT 070V140 CAVOK 17/02 Q1014

TAF TAF LIRA
Valide du 22 à 00h jusqu'au 23 à 00h UTC


212300Z 2200/2224 VRB05KT 9999 SCT030
BECMG 2208/2210 15015G25KT
TEMPO 2212/2215 RA
TEMPO 2215/2220 TSRA
Pas de NOTAMs connus pour ce terrain.
3 SIGMETs publiés pour la FIR Roma (LIRR) :
 
Turbulence forte
LIRR SIGMET 9 VALID 220000/220400 LIIB
LIRR ROMA FIR SEV TURB FCST WI N4154 E00943 - N4131 E01022 - N4026 E01201 - N3853 E01424 - N3630 E01626 - N3631 E01128 - N3728 E01131 - N3900 E00758 - N4055 E00757 - N4118 E00816 - N4119 E00945 - N4154 E00943 FL270/370 STNR NC=
Turbulence forte
LIRR SIGMET 8 VALID 220000/220400 LIIB
LIRR ROMA FIR SEV TURB FCST WI N4154 E00943 - N4131 E01022 - N4026 E01201 - N3853 E01424 - N3630 E01626 - N3631 E01128 - N3728 E01131 - N3900 E00758 - N4055 E00757 - N4118 E00816 - N4119 E00945 - N4154 E00943 SFC/FL080 STNR NC=
Turbulence forte
LIRR SIGMET 6 VALID 212100/220000 LIIB
LIRR ROMA FIR SEV TURB FCST WI N4154 E00943 - N4131 E01022 - N4026 E01201 - N3853 E01424 - N3630 E01626 - N3631 E01128 - N3728 E01131 - N3900 E00758 - N4055 E00757 - N4118 E00816 - N4119 E00945 - N4154 E00943 SFC/FL080 STNR NC=



MET'MAP, la Météo Aéronautique d'un coup d'oeil ! - Copyright ORBIFLY Décembre 2007 - Disclaimer

ORBIFLY MET'MAP TEAM :

Programmation & Développement : Alexandra Zaïnal
Conception & Développement : Baudouin d'Aumeries
Co-Programmation & Développement : Marc-Olivier Méhu
Soutien technique & logistique : Manuel Goepfert

Contact : metmap@orbifly.com




SOURCES & CREDITS :

   NOAA